createdAt,value
2023-05-04T00:00:59.658Z,67.29
2023-05-04T00:03:02.385Z,67.54
2023-05-04T00:05:06.470Z,67.93
2023-05-04T00:07:09.267Z,68.42
2023-05-04T00:09:13.713Z,68.55
2023-05-04T00:11:17.640Z,68.78
2023-05-04T00:13:20.297Z,68.34
2023-05-04T00:15:23.118Z,68.48
2023-05-04T00:17:25.785Z,69.03
2023-05-04T00:19:28.595Z,69.21
2023-05-04T00:21:31.380Z,69.46
2023-05-04T00:23:34.301Z,69.54
2023-05-04T00:25:37.227Z,69.55
2023-05-04T00:27:39.984Z,69.67
2023-05-04T00:29:42.659Z,70.14
2023-05-04T00:31:45.407Z,70.07
2023-05-04T00:33:48.141Z,70.32
2023-05-04T00:35:50.863Z,69.99
2023-05-04T00:37:53.650Z,70.25
2023-05-04T00:39:56.402Z,70.26
2023-05-04T00:41:59.114Z,70.37
2023-05-04T00:44:04.447Z,70.36
2023-05-04T00:46:07.207Z,70.19
2023-05-04T00:48:10.429Z,70.56
2023-05-04T00:50:13.214Z,70.61
2023-05-04T00:52:16.711Z,70.63
2023-05-04T00:54:20.125Z,70.42
2023-05-04T00:56:24.703Z,70.10
2023-05-04T00:58:27.503Z,69.98
2023-05-04T01:00:30.334Z,69.26
2023-05-04T01:02:33.175Z,69.25
2023-05-04T01:04:36.110Z,68.56
2023-05-04T01:06:49.116Z,68.63
2023-05-04T01:09:21.042Z,68.56
2023-05-04T01:12:15.815Z,68.16
2023-05-04T01:14:21.463Z,68.28
2023-05-04T01:16:24.206Z,68.12
2023-05-04T01:18:27.222Z,68.66
2023-05-04T01:20:30.231Z,68.63
2023-05-04T01:22:33.168Z,68.55
2023-05-04T01:24:36.026Z,68.86
2023-05-04T01:26:42.105Z,68.06
2023-05-04T01:28:53.309Z,68.14
2023-05-04T01:31:00.559Z,67.46
2023-05-04T01:33:04.618Z,67.37
2023-05-04T01:35:08.051Z,66.64
2023-05-04T01:37:11.064Z,66.53
2023-05-04T01:39:13.739Z,66.35
2023-05-04T01:41:16.406Z,66.77
2023-05-04T01:43:19.163Z,66.72
2023-05-04T01:45:22.054Z,66.72
2023-05-04T01:47:24.792Z,66.87
2023-05-04T01:49:27.567Z,66.99
2023-05-04T01:51:30.190Z,66.59
2023-05-04T01:53:32.932Z,67.50
2023-05-04T01:55:35.648Z,67.48
2023-05-04T01:57:38.614Z,66.49
2023-05-04T01:59:41.213Z,65.77
2023-05-04T02:01:44.065Z,65.92
2023-05-04T02:03:47.105Z,64.88
2023-05-04T02:05:49.900Z,64.61
2023-05-04T02:07:52.698Z,64.15
2023-05-04T02:09:55.328Z,64.17
2023-05-04T02:11:57.948Z,63.87
2023-05-04T02:14:01.798Z,63.99
2023-05-04T02:16:04.965Z,63.30
2023-05-04T02:18:07.780Z,62.95
2023-05-04T02:20:10.871Z,63.21
2023-05-04T02:22:13.536Z,63.14
2023-05-04T02:24:16.361Z,62.90
2023-05-04T02:26:18.976Z,63.42
2023-05-04T02:28:21.831Z,62.65
2023-05-04T02:30:24.629Z,62.70
2023-05-04T02:32:27.589Z,63.44
2023-05-04T02:34:30.754Z,63.25
2023-05-04T02:36:33.399Z,63.26
2023-05-04T02:38:36.197Z,62.75
2023-05-04T02:40:38.930Z,62.68
2023-05-04T02:42:41.772Z,61.94
2023-05-04T02:44:44.440Z,61.67
2023-05-04T02:46:47.160Z,61.58
2023-05-04T02:48:49.813Z,61.83
2023-05-04T02:50:52.794Z,61.69
2023-05-04T02:52:55.476Z,60.65
2023-05-04T02:54:58.139Z,60.56
2023-05-04T02:57:00.991Z,60.33
2023-05-04T02:59:03.718Z,60.28
2023-05-04T03:01:06.591Z,60.88
2023-05-04T03:03:09.444Z,62.21
2023-05-04T03:05:12.084Z,62.59
2023-05-04T03:07:14.767Z,62.87
2023-05-04T03:09:17.540Z,62.28
2023-05-04T03:11:20.222Z,62.35
2023-05-04T03:13:23.001Z,62.25
2023-05-04T03:15:25.708Z,61.83
2023-05-04T03:17:28.491Z,61.43
2023-05-04T03:19:31.375Z,61.46
2023-05-04T03:21:34.015Z,61.33
2023-05-04T03:23:36.718Z,61.39
2023-05-04T03:25:39.449Z,60.89
2023-05-04T03:27:42.215Z,60.89
2023-05-04T03:29:44.927Z,60.66
2023-05-04T03:31:47.773Z,61.13
2023-05-04T03:33:50.798Z,60.59
2023-05-04T03:35:53.512Z,60.35
2023-05-04T03:37:56.322Z,61.26
2023-05-04T03:39:59.207Z,61.87
2023-05-04T03:42:02.824Z,61.58
2023-05-04T03:44:05.541Z,62.70
2023-05-04T03:46:08.374Z,61.77
2023-05-04T03:48:11.309Z,61.54
2023-05-04T03:50:14.496Z,61.40
2023-05-04T03:52:17.261Z,59.71
2023-05-04T03:54:19.916Z,58.87
2023-05-04T03:56:22.810Z,58.63
2023-05-04T03:58:25.582Z,58.25
2023-05-04T04:00:28.301Z,58.23
2023-05-04T04:02:31.447Z,58.33
2023-05-04T04:04:34.710Z,58.46
2023-05-04T04:06:37.666Z,57.68
2023-05-04T04:08:40.402Z,57.35
2023-05-04T04:10:43.042Z,57.15
2023-05-04T04:12:45.879Z,57.40
2023-05-04T04:14:54.678Z,57.70
2023-05-04T04:16:57.429Z,57.44
2023-05-04T04:19:02.026Z,57.89
2023-05-04T04:21:04.944Z,57.22
2023-05-04T04:23:08.053Z,56.80
2023-05-04T04:25:10.699Z,57.06
2023-05-04T04:27:13.942Z,57.15
2023-05-04T04:29:16.678Z,56.55
2023-05-04T04:31:20.109Z,56.21
2023-05-04T04:33:23.048Z,55.73
2023-05-04T04:35:26.997Z,55.22
2023-05-04T04:37:29.866Z,55.05
2023-05-04T04:39:33.070Z,55.67
2023-05-04T04:41:35.720Z,54.97
2023-05-04T04:43:38.477Z,56.15
2023-05-04T04:45:41.582Z,55.38
2023-05-04T04:47:45.358Z,56.24
2023-05-04T04:49:48.947Z,56.39
2023-05-04T04:51:51.827Z,56.86
2023-05-04T04:53:54.780Z,57.63
2023-05-04T04:55:57.537Z,57.49
2023-05-04T04:58:00.586Z,55.81
2023-05-04T05:00:08.314Z,55.36
2023-05-04T05:02:11.085Z,55.56
2023-05-04T05:04:13.951Z,54.41
2023-05-04T05:06:16.943Z,54.17
2023-05-04T05:08:19.631Z,54.59
2023-05-04T05:10:22.464Z,54.84
2023-05-04T05:12:25.272Z,56.88
2023-05-04T05:14:28.010Z,56.10
2023-05-04T05:16:30.797Z,55.25
2023-05-04T05:18:33.514Z,54.69
2023-05-04T05:20:36.312Z,54.75
2023-05-04T05:22:39.482Z,53.79
2023-05-04T05:24:42.834Z,54.23
2023-05-04T05:26:45.734Z,55.43
2023-05-04T05:28:49.243Z,54.73
2023-05-04T05:30:52.536Z,54.58
2023-05-04T05:32:55.336Z,55.18
2023-05-04T05:34:59.409Z,55.46
2023-05-04T05:37:02.283Z,56.17
2023-05-04T05:39:05.844Z,54.69
2023-05-04T05:41:10.055Z,54.05
2023-05-04T05:43:12.734Z,55.06
2023-05-04T05:45:15.864Z,54.13
2023-05-04T05:47:18.544Z,54.80
2023-05-04T05:49:21.216Z,52.48
2023-05-04T05:51:23.903Z,52.96
2023-05-04T05:53:26.925Z,51.39
2023-05-04T05:55:29.659Z,51.32
2023-05-04T05:57:32.293Z,51.09
2023-05-04T05:59:35.124Z,50.59
2023-05-04T06:01:39.075Z,50.51
2023-05-04T06:03:42.103Z,50.63
2023-05-04T06:05:45.078Z,49.52
2023-05-04T06:07:47.880Z,48.32
2023-05-04T06:09:50.900Z,47.68
2023-05-04T06:11:55.442Z,48.23
2023-05-04T06:13:58.307Z,46.98
2023-05-04T06:16:01.955Z,47.10
2023-05-04T06:18:05.052Z,47.12
2023-05-04T06:20:09.245Z,46.30
2023-05-04T06:22:11.998Z,46.75
2023-05-04T06:24:14.722Z,46.57
2023-05-04T06:26:17.522Z,47.80
2023-05-04T06:28:20.173Z,46.08
2023-05-04T06:30:28.977Z,45.78
2023-05-04T06:32:34.369Z,45.63
2023-05-04T06:34:37.103Z,45.03
2023-05-04T06:36:39.779Z,44.75
2023-05-04T06:38:42.497Z,45.53
2023-05-04T06:40:45.748Z,44.80
2023-05-04T06:42:48.555Z,45.71
2023-05-04T06:44:52.431Z,45.15
2023-05-04T06:46:55.199Z,43.92
2023-05-04T06:48:58.644Z,43.35
2023-05-04T06:51:02.225Z,43.96
2023-05-04T06:53:10.599Z,42.85
2023-05-04T06:55:14.105Z,42.44
2023-05-04T06:57:17.311Z,42.16
2023-05-04T06:59:20.702Z,42.77
2023-05-04T07:01:23.733Z,42.85
2023-05-04T07:03:27.228Z,41.51
2023-05-04T07:05:29.968Z,42.61
2023-05-04T07:07:32.724Z,41.38
2023-05-04T07:09:35.503Z,40.91
2023-05-04T07:11:38.213Z,41.21
2023-05-04T07:13:40.890Z,39.95
2023-05-04T07:15:43.520Z,39.02
2023-05-04T07:17:47.240Z,39.59
2023-05-04T07:19:52.552Z,40.25
2023-05-04T07:21:56.465Z,38.90
2023-05-04T07:23:59.489Z,38.76
2023-05-04T07:26:02.693Z,39.23
2023-05-04T07:28:06.046Z,39.55
2023-05-04T07:30:09.028Z,39.89
2023-05-04T07:32:12.051Z,39.87
2023-05-04T07:34:14.837Z,40.79
2023-05-04T07:36:17.896Z,39.52
2023-05-04T07:38:20.622Z,39.16
2023-05-04T07:40:23.444Z,38.00
2023-05-04T07:42:28.072Z,37.58
2023-05-04T07:44:31.781Z,37.50
2023-05-04T07:46:34.760Z,37.66
2023-05-04T07:48:37.568Z,38.32
2023-05-04T07:50:42.223Z,37.72
2023-05-04T07:52:46.640Z,36.42
2023-05-04T07:54:53.532Z,36.27
2023-05-04T07:56:56.660Z,36.23
2023-05-04T07:58:59.349Z,36.91
2023-05-04T08:01:02.137Z,36.89
2023-05-04T08:03:05.036Z,36.55
2023-05-04T08:05:08.740Z,36.51
2023-05-04T08:07:11.604Z,36.79
2023-05-04T08:09:14.355Z,35.75
2023-05-04T08:11:20.754Z,36.42
2023-05-04T08:13:24.135Z,36.45
2023-05-04T08:15:26.989Z,36.06
2023-05-04T08:17:29.911Z,36.74
2023-05-04T08:19:32.639Z,37.64
2023-05-04T08:21:35.441Z,36.35
2023-05-04T08:23:45.486Z,35.66
2023-05-04T08:25:48.298Z,36.29
2023-05-04T08:27:51.430Z,36.54
2023-05-04T08:29:54.511Z,35.41
2023-05-04T08:32:00.686Z,35.07
2023-05-04T08:34:04.290Z,35.13
2023-05-04T08:36:08.636Z,35.55
2023-05-04T08:38:11.450Z,35.34
2023-05-04T08:40:15.309Z,35.19
2023-05-04T08:42:31.833Z,35.56
2023-05-04T08:44:35.439Z,35.02
2023-05-04T08:46:40.210Z,37.29
2023-05-04T08:48:44.898Z,35.02
2023-05-04T08:50:48.038Z,34.51
2023-05-04T08:52:52.720Z,33.90
2023-05-04T08:54:57.059Z,34.10
2023-05-04T08:57:00.491Z,35.35
2023-05-04T08:59:04.222Z,34.34
2023-05-04T09:01:08.567Z,33.71
2023-05-04T09:03:12.807Z,33.49
2023-05-04T09:05:16.551Z,33.09
2023-05-04T09:07:20.656Z,33.09
2023-05-04T09:09:26.708Z,33.26
2023-05-04T09:11:29.880Z,33.15
2023-05-04T09:13:32.754Z,32.94
2023-05-04T09:15:35.474Z,32.03
2023-05-04T09:17:47.483Z,33.19
2023-05-04T09:20:01.450Z,32.72
2023-05-04T09:22:19.667Z,32.28
2023-05-04T09:24:27.187Z,32.74
2023-05-04T09:26:31.076Z,32.78
2023-05-04T09:28:36.928Z,34.63
2023-05-04T09:30:40.181Z,34.51
2023-05-04T09:32:49.872Z,33.92
2023-05-04T09:34:54.631Z,35.51
2023-05-04T09:37:03.951Z,34.74
2023-05-04T09:39:15.659Z,33.22
2023-05-04T09:41:18.678Z,33.06
2023-05-04T09:43:21.654Z,33.19
2023-05-04T09:45:24.432Z,32.88
2023-05-04T09:47:40.369Z,32.36
2023-05-04T09:49:43.496Z,32.49
2023-05-04T09:51:46.940Z,32.74
2023-05-04T09:53:51.034Z,32.26
2023-05-04T09:56:07.952Z,32.37
2023-05-04T09:58:13.440Z,33.29
2023-05-04T10:00:18.069Z,32.22
2023-05-04T10:02:23.409Z,32.98
2023-05-04T10:04:26.736Z,33.89
2023-05-04T10:06:30.548Z,32.99
2023-05-04T10:08:33.711Z,32.89
2023-05-04T10:10:39.567Z,32.08
2023-05-04T10:12:44.889Z,32.36
2023-05-04T10:14:47.757Z,32.24
2023-05-04T10:17:01.443Z,31.56
2023-05-04T10:19:32.510Z,31.67
2023-05-04T10:22:20.171Z,30.65
2023-05-04T10:24:50.449Z,31.07
2023-05-04T10:27:06.654Z,30.96
2023-05-04T10:29:28.930Z,30.66
2023-05-04T10:31:39.739Z,31.36
2023-05-04T10:33:43.893Z,30.89
2023-05-04T10:35:54.313Z,30.54
2023-05-04T10:37:57.383Z,30.80
2023-05-04T10:40:00.297Z,30.44
2023-05-04T10:42:05.377Z,30.05
2023-05-04T10:44:10.153Z,29.82
2023-05-04T10:46:20.334Z,28.84
2023-05-04T10:48:35.268Z,29.42
2023-05-04T10:50:45.114Z,29.14
2023-05-04T10:52:53.875Z,28.88
2023-05-04T10:55:01.622Z,27.95
2023-05-04T10:57:16.750Z,27.61
2023-05-04T10:59:19.704Z,28.50
2023-05-04T11:01:22.961Z,28.16
2023-05-04T11:03:26.218Z,28.27
2023-05-04T11:05:47.129Z,28.25
2023-05-04T11:07:53.508Z,28.04
2023-05-04T11:09:56.951Z,27.97
2023-05-04T11:12:00.115Z,27.05
2023-05-04T11:14:03.560Z,26.47
2023-05-04T11:16:06.626Z,26.78
2023-05-04T11:18:09.696Z,26.43
2023-05-04T11:20:19.691Z,26.52
2023-05-04T11:22:22.498Z,26.84
2023-05-04T11:24:26.358Z,26.38
2023-05-04T11:26:29.292Z,25.97
2023-05-04T11:28:41.249Z,25.79
2023-05-04T11:30:46.388Z,26.40
2023-05-04T11:32:54.264Z,26.89
2023-05-04T11:34:57.063Z,27.29
2023-05-04T11:37:00.366Z,27.17
2023-05-04T11:39:05.809Z,26.73
2023-05-04T11:41:09.333Z,26.96
2023-05-04T11:43:12.924Z,27.00
2023-05-04T11:45:39.730Z,27.66
2023-05-04T11:47:43.634Z,27.78
2023-05-04T11:49:47.777Z,26.12
2023-05-04T11:51:50.475Z,26.06
2023-05-04T11:53:54.005Z,25.67
2023-05-04T11:56:03.042Z,25.08
2023-05-04T11:58:10.856Z,25.22
2023-05-04T12:00:14.335Z,25.36
2023-05-04T12:02:18.384Z,24.82
2023-05-04T12:04:21.171Z,25.32
2023-05-04T12:06:34.026Z,25.36
2023-05-04T12:08:42.373Z,25.86
2023-05-04T12:10:45.439Z,26.26
2023-05-04T12:12:48.315Z,26.95
2023-05-04T12:14:54.763Z,26.65
2023-05-04T12:16:57.989Z,26.04
2023-05-04T12:19:11.529Z,25.90
2023-05-04T12:21:24.171Z,24.68
2023-05-04T12:23:27.728Z,25.05
2023-05-04T12:25:31.344Z,25.71
2023-05-04T12:27:34.164Z,25.87
2023-05-04T12:29:36.908Z,26.65
2023-05-04T12:31:40.001Z,27.74
2023-05-04T12:33:42.784Z,27.98
2023-05-04T12:35:45.542Z,29.10
2023-05-04T12:37:48.340Z,30.46
2023-05-04T12:39:51.217Z,30.75
2023-05-04T12:41:54.135Z,30.88
2023-05-04T12:43:56.857Z,30.80
2023-05-04T12:46:00.017Z,30.73
2023-05-04T12:48:02.864Z,29.63
2023-05-04T12:50:06.335Z,29.43
2023-05-04T12:52:09.306Z,29.46
2023-05-04T12:54:12.008Z,29.28
2023-05-04T12:56:14.720Z,29.52
2023-05-04T12:58:17.431Z,28.91
2023-05-04T13:00:20.743Z,28.57
2023-05-04T13:02:24.747Z,28.18
2023-05-04T13:04:27.496Z,28.70
2023-05-04T13:06:30.480Z,29.62
2023-05-04T13:08:33.809Z,30.49
2023-05-04T13:10:36.721Z,31.75
2023-05-04T13:12:39.901Z,32.34
2023-05-04T13:14:42.738Z,33.03
2023-05-04T13:16:45.504Z,32.83
2023-05-04T13:18:48.763Z,32.82
2023-05-04T13:20:53.891Z,32.75
2023-05-04T13:22:58.406Z,33.68
2023-05-04T13:25:01.408Z,33.59
2023-05-04T13:27:06.174Z,34.27
2023-05-04T13:29:08.860Z,33.91
2023-05-04T13:31:11.650Z,34.00
2023-05-04T13:33:28.195Z,33.84
2023-05-04T13:35:32.614Z,33.28
2023-05-04T13:37:35.660Z,33.34
2023-05-04T13:39:42.057Z,33.81
2023-05-04T13:41:44.871Z,33.54
2023-05-04T13:43:48.795Z,33.87
2023-05-04T13:45:52.168Z,33.88
2023-05-04T13:47:55.274Z,33.18
2023-05-04T13:49:58.282Z,33.75
2023-05-04T13:52:01.340Z,33.08
2023-05-04T13:54:04.336Z,33.02
2023-05-04T13:56:07.229Z,32.99
2023-05-04T13:58:10.102Z,33.63
2023-05-04T14:00:14.332Z,33.32
2023-05-04T14:02:17.801Z,33.88
2023-05-04T14:04:21.199Z,33.67
2023-05-04T14:06:23.806Z,33.79
2023-05-04T14:08:27.182Z,33.78
2023-05-04T14:10:30.013Z,34.66
2023-05-04T14:12:32.702Z,34.95
2023-05-04T14:14:35.734Z,35.99
2023-05-04T14:16:38.597Z,36.21
2023-05-04T14:18:41.311Z,36.39
2023-05-04T14:20:44.054Z,36.67
2023-05-04T14:22:46.788Z,36.81
2023-05-04T14:24:50.296Z,37.00
2023-05-04T14:26:53.266Z,36.95
2023-05-04T14:28:56.146Z,37.26
2023-05-04T14:30:59.562Z,37.55
2023-05-04T14:33:03.888Z,37.96
2023-05-04T14:35:11.223Z,38.45
2023-05-04T14:37:14.107Z,38.64
2023-05-04T14:39:16.976Z,38.80
2023-05-04T14:41:19.675Z,39.03
2023-05-04T14:43:22.325Z,38.99
2023-05-04T14:45:25.017Z,38.30
2023-05-04T14:47:29.160Z,39.33
2023-05-04T14:49:37.391Z,39.38
2023-05-04T14:51:40.846Z,39.85
2023-05-04T14:53:46.544Z,40.02
2023-05-04T14:55:50.073Z,40.42
2023-05-04T14:57:52.924Z,40.30
2023-05-04T14:59:55.737Z,40.72
2023-05-04T15:01:58.437Z,41.02
2023-05-04T15:04:01.085Z,41.34
2023-05-04T15:06:04.297Z,41.73
2023-05-04T15:08:06.976Z,42.72
2023-05-04T15:10:10.727Z,43.79
2023-05-04T15:12:13.717Z,45.01
2023-05-04T15:14:16.518Z,45.65
2023-05-04T15:16:19.336Z,46.55
2023-05-04T15:18:24.143Z,47.12
2023-05-04T15:20:26.982Z,47.78
2023-05-04T15:22:29.686Z,47.94
2023-05-04T15:24:32.731Z,48.17
2023-05-04T15:26:36.132Z,48.73
2023-05-04T15:28:38.796Z,48.94
2023-05-04T15:30:42.619Z,49.79
2023-05-04T15:32:45.455Z,50.20
2023-05-04T15:35:01.004Z,50.84
2023-05-04T15:37:09.355Z,50.95
2023-05-04T15:39:12.679Z,51.12
2023-05-04T15:41:15.446Z,51.70
2023-05-04T15:43:18.171Z,51.99
2023-05-04T15:45:21.496Z,51.95
2023-05-04T15:47:24.463Z,52.36
2023-05-04T15:49:27.431Z,52.33
2023-05-04T15:51:32.273Z,52.61
2023-05-04T15:53:35.107Z,52.97
2023-05-04T15:55:38.006Z,53.22
2023-05-04T15:57:41.275Z,53.65
2023-05-04T15:59:44.007Z,53.81
2023-05-04T16:01:47.377Z,54.02
2023-05-04T16:03:50.238Z,53.91
2023-05-04T16:05:52.999Z,54.12
2023-05-04T16:07:55.762Z,54.04
2023-05-04T16:09:59.546Z,54.35
2023-05-04T16:12:05.462Z,54.39
2023-05-04T16:14:08.217Z,54.49
2023-05-04T16:16:11.264Z,54.47
2023-05-04T16:18:14.080Z,54.11
2023-05-04T16:20:16.822Z,54.08
2023-05-04T16:22:19.647Z,54.15
2023-05-04T16:24:22.353Z,54.12
2023-05-04T16:26:25.988Z,54.16
2023-05-04T16:28:29.640Z,53.78
2023-05-04T16:30:34.627Z,53.96
2023-05-04T16:32:38.705Z,54.26
2023-05-04T16:34:42.305Z,54.38
2023-05-04T16:36:45.780Z,54.30
2023-05-04T16:38:49.353Z,54.39
2023-05-04T16:40:52.403Z,54.37
2023-05-04T16:42:55.727Z,54.32
2023-05-04T16:45:00.168Z,54.37
2023-05-04T16:47:04.473Z,54.53
2023-05-04T16:49:10.462Z,54.41
2023-05-04T16:51:15.036Z,54.62
2023-05-04T16:53:21.720Z,54.94
2023-05-04T16:55:27.445Z,55.31
2023-05-04T16:57:37.342Z,55.24
2023-05-04T17:00:06.068Z,55.15
2023-05-04T17:02:22.824Z,55.76
2023-05-04T17:04:27.820Z,56.10
2023-05-04T17:06:31.728Z,56.28
2023-05-04T17:08:35.341Z,55.92
2023-05-04T17:10:39.501Z,56.02
2023-05-04T17:12:43.079Z,56.53
2023-05-04T17:14:49.730Z,55.99
2023-05-04T17:17:07.178Z,55.83
2023-05-04T17:19:11.313Z,56.46
2023-05-04T17:21:20.608Z,56.87
2023-05-04T17:23:27.589Z,56.85
2023-05-04T17:25:32.609Z,57.12
2023-05-04T17:27:51.701Z,57.61
2023-05-04T17:29:58.951Z,57.75
2023-05-04T17:32:04.252Z,57.72
2023-05-04T17:34:12.944Z,58.02
2023-05-04T17:36:19.946Z,58.48
2023-05-04T17:38:23.140Z,58.83
2023-05-04T17:40:30.339Z,59.39
2023-05-04T17:42:37.455Z,60.32
2023-05-04T17:44:40.613Z,61.06
2023-05-04T17:46:45.063Z,61.65
2023-05-04T17:48:48.344Z,61.93
2023-05-04T17:50:52.243Z,61.82
2023-05-04T17:52:56.082Z,61.83
2023-05-04T17:54:59.313Z,61.38
2023-05-04T17:57:02.403Z,61.59
2023-05-04T17:59:05.388Z,61.66
2023-05-04T18:01:08.279Z,62.09
2023-05-04T18:03:11.235Z,62.46
2023-05-04T18:05:14.002Z,62.74
2023-05-04T18:07:16.753Z,62.54
2023-05-04T18:09:20.174Z,62.66
2023-05-04T18:11:22.986Z,62.52
2023-05-04T18:13:26.150Z,62.51
2023-05-04T18:15:29.069Z,62.59
2023-05-04T18:17:32.015Z,62.30
2023-05-04T18:19:36.697Z,62.75
2023-05-04T18:21:39.534Z,62.41
2023-05-04T18:23:42.715Z,62.28
2023-05-04T18:25:45.676Z,62.34
2023-05-04T18:27:48.585Z,62.36
2023-05-04T18:29:52.654Z,62.59
2023-05-04T18:31:55.537Z,62.75
2023-05-04T18:34:00.744Z,62.99
2023-05-04T18:36:03.592Z,63.30
2023-05-04T18:38:06.449Z,63.78
2023-05-04T18:40:10.315Z,63.59
2023-05-04T18:42:13.994Z,63.71
2023-05-04T18:44:16.824Z,64.22
2023-05-04T18:46:19.666Z,64.18
2023-05-04T18:48:23.499Z,64.26
2023-05-04T18:50:26.257Z,64.15
2023-05-04T18:52:29.055Z,64.78
2023-05-04T18:54:34.642Z,65.47
2023-05-04T18:56:37.634Z,65.60
2023-05-04T18:58:40.621Z,65.67
2023-05-04T19:00:46.522Z,65.86
2023-05-04T19:02:49.372Z,66.21
2023-05-04T19:04:52.313Z,66.24
2023-05-04T19:06:55.103Z,66.37
2023-05-04T19:08:58.082Z,66.47
2023-05-04T19:11:03.474Z,66.55
2023-05-04T19:13:06.435Z,66.63
2023-05-04T19:15:09.814Z,67.08
2023-05-04T19:17:14.810Z,67.55
2023-05-04T19:19:18.030Z,67.57
2023-05-04T19:21:20.850Z,68.09
2023-05-04T19:23:23.590Z,68.29
2023-05-04T19:25:34.056Z,68.39
2023-05-04T19:27:37.565Z,68.57
2023-05-04T19:29:40.297Z,68.71
2023-05-04T19:31:43.130Z,68.45
2023-05-04T19:33:48.893Z,69.09
2023-05-04T19:35:51.931Z,68.75
2023-05-04T19:37:54.730Z,69.08
2023-05-04T19:39:58.187Z,69.18
2023-05-04T19:42:02.249Z,69.33
2023-05-04T19:44:10.341Z,69.38
2023-05-04T19:46:14.900Z,69.84
2023-05-04T19:48:17.921Z,69.69
2023-05-04T19:50:21.166Z,69.78
2023-05-04T19:52:23.954Z,70.27
2023-05-04T19:54:26.985Z,70.67
2023-05-04T19:56:29.673Z,70.98
2023-05-04T19:58:32.947Z,71.48
2023-05-04T20:00:35.779Z,71.94
2023-05-04T20:02:39.417Z,71.93
2023-05-04T20:04:42.364Z,71.81
2023-05-04T20:06:45.185Z,71.76
2023-05-04T20:08:48.103Z,72.11
2023-05-04T20:10:51.175Z,72.70
2023-05-04T20:12:53.935Z,72.96
2023-05-04T20:14:56.857Z,73.58
2023-05-04T20:16:59.751Z,73.75
2023-05-04T20:19:04.190Z,73.50
2023-05-04T20:21:07.137Z,73.51
2023-05-04T20:23:10.071Z,73.59
2023-05-04T20:25:13.585Z,73.17
2023-05-04T20:27:16.597Z,73.35
2023-05-04T20:29:19.589Z,73.54
2023-05-04T20:31:22.367Z,73.94
2023-05-04T20:33:25.248Z,73.50
2023-05-04T20:35:27.990Z,73.68
2023-05-04T20:37:30.729Z,73.52
2023-05-04T20:39:33.552Z,73.82
2023-05-04T20:41:36.284Z,74.13
2023-05-04T20:43:39.360Z,74.24
2023-05-04T20:45:42.247Z,74.25
2023-05-04T20:47:45.159Z,74.33
2023-05-04T20:49:48.008Z,74.08
2023-05-04T20:51:50.797Z,74.13
2023-05-04T20:53:53.518Z,74.09
2023-05-04T20:55:56.556Z,74.07
2023-05-04T20:57:59.250Z,74.47
2023-05-04T21:00:02.095Z,74.31
2023-05-04T21:02:09.461Z,74.64
2023-05-04T21:04:12.342Z,74.67
2023-05-04T21:06:15.096Z,74.87
2023-05-04T21:08:17.961Z,75.11
2023-05-04T21:10:20.928Z,74.69
2023-05-04T21:12:23.852Z,75.42
2023-05-04T21:14:26.892Z,75.44
2023-05-04T21:16:29.677Z,75.79
2023-05-04T21:18:32.446Z,76.14
2023-05-04T21:20:35.957Z,76.17
2023-05-04T21:22:38.742Z,76.48
2023-05-04T21:24:44.071Z,76.86
2023-05-04T21:26:48.643Z,76.63
2023-05-04T21:28:51.685Z,76.03
2023-05-04T21:30:54.870Z,76.76
2023-05-04T21:32:57.690Z,76.99
2023-05-04T21:35:00.467Z,76.50
2023-05-04T21:37:03.934Z,76.79
2023-05-04T21:39:06.743Z,76.13
2023-05-04T21:41:16.935Z,75.71
2023-05-04T21:43:19.674Z,75.63
2023-05-04T21:45:22.327Z,75.60
2023-05-04T21:47:25.624Z,75.90
2023-05-04T21:49:28.711Z,75.79
2023-05-04T21:51:31.852Z,75.85
2023-05-04T21:53:34.815Z,76.04
2023-05-04T21:55:37.702Z,76.44
2023-05-04T21:57:40.368Z,76.22
2023-05-04T21:59:43.107Z,75.95
2023-05-04T22:01:46.272Z,76.03
2023-05-04T22:03:49.237Z,76.08
2023-05-04T22:05:54.399Z,76.36
2023-05-04T22:07:57.091Z,76.26
2023-05-04T22:09:59.937Z,76.41
2023-05-04T22:12:04.170Z,76.46
2023-05-04T22:14:06.961Z,76.29
2023-05-04T22:16:09.815Z,75.98
2023-05-04T22:18:12.870Z,76.08
2023-05-04T22:20:15.861Z,76.20
2023-05-04T22:22:18.624Z,75.90
2023-05-04T22:24:21.613Z,76.11
2023-05-04T22:26:24.712Z,76.40
2023-05-04T22:28:27.569Z,76.45
2023-05-04T22:30:30.531Z,76.55
2023-05-04T22:32:33.280Z,76.61
2023-05-04T22:34:36.213Z,77.02
2023-05-04T22:36:38.974Z,76.90
2023-05-04T22:38:41.615Z,76.95
2023-05-04T22:40:44.376Z,77.27
2023-05-04T22:42:47.015Z,77.72
2023-05-04T22:44:49.682Z,77.96
2023-05-04T22:46:52.596Z,78.02
2023-05-04T22:48:55.219Z,78.64
2023-05-04T22:50:57.910Z,79.19
2023-05-04T22:53:00.751Z,79.29
2023-05-04T22:55:04.439Z,79.92
2023-05-04T22:57:07.177Z,80.50
2023-05-04T22:59:09.890Z,80.66
2023-05-04T23:01:12.599Z,81.18
2023-05-04T23:03:15.319Z,81.03
2023-05-04T23:05:18.375Z,81.19
2023-05-04T23:07:21.272Z,80.79
2023-05-04T23:09:23.922Z,80.11
2023-05-04T23:11:26.549Z,79.74
2023-05-04T23:13:29.153Z,79.55
2023-05-04T23:15:32.940Z,79.20
2023-05-04T23:17:38.561Z,78.51
2023-05-04T23:19:41.297Z,78.67
2023-05-04T23:21:43.937Z,78.29
2023-05-04T23:23:46.977Z,78.12
2023-05-04T23:25:49.689Z,78.01
2023-05-04T23:27:52.374Z,77.93
2023-05-04T23:29:55.125Z,77.91
2023-05-04T23:31:58.114Z,78.47
2023-05-04T23:34:00.894Z,78.10
2023-05-04T23:36:03.943Z,78.04
2023-05-04T23:38:06.528Z,78.15
2023-05-04T23:40:10.404Z,78.45
2023-05-04T23:42:13.266Z,78.72
2023-05-04T23:44:16.737Z,79.05
2023-05-04T23:46:19.350Z,79.43
2023-05-04T23:48:22.061Z,80.15
2023-05-04T23:50:24.764Z,80.44
2023-05-04T23:52:27.415Z,81.05
2023-05-04T23:54:30.100Z,81.36
2023-05-04T23:56:32.979Z,81.92
2023-05-04T23:58:35.937Z,82.66
